createdAt,value
2022-10-24T00:01:14.927Z,6.07
2022-10-24T00:03:41.592Z,5.80
2022-10-24T00:06:10.355Z,5.80
2022-10-24T00:08:38.202Z,5.53
2022-10-24T00:11:16.493Z,6.10
2022-10-24T00:13:43.555Z,5.90
2022-10-24T00:16:10.630Z,6.37
2022-10-24T00:18:37.567Z,6.10
2022-10-24T00:21:04.753Z,5.97
2022-10-24T00:23:31.520Z,5.77
2022-10-24T00:26:01.628Z,6.30
2022-10-24T00:28:28.846Z,5.53
2022-10-24T00:30:55.378Z,6.00
2022-10-24T00:33:22.062Z,6.03
2022-10-24T00:35:48.614Z,6.47
2022-10-24T00:38:15.185Z,6.60
2022-10-24T00:40:42.223Z,6.63
2022-10-24T00:43:20.976Z,6.93
2022-10-24T00:45:55.343Z,6.97
2022-10-24T00:48:35.555Z,7.20
2022-10-24T00:51:08.005Z,7.30
2022-10-24T00:53:41.703Z,7.33
2022-10-24T00:56:08.983Z,7.07
2022-10-24T00:58:37.450Z,6.93
2022-10-24T01:01:04.834Z,6.57
2022-10-24T01:03:32.036Z,7.13
2022-10-24T01:06:23.231Z,6.90
2022-10-24T01:09:08.378Z,7.57
2022-10-24T01:12:03.025Z,6.97
2022-10-24T01:14:50.638Z,7.20
2022-10-24T01:17:50.854Z,6.43
2022-10-24T01:20:35.938Z,6.80
2022-10-24T01:23:42.141Z,7.00
2022-10-24T01:26:47.758Z,6.30
2022-10-24T01:29:36.639Z,6.47
2022-10-24T01:32:08.459Z,7.00
2022-10-24T01:34:55.387Z,7.10
2022-10-24T01:37:32.339Z,6.90
2022-10-24T01:40:07.629Z,6.87
2022-10-24T01:42:37.383Z,7.10
2022-10-24T01:45:05.955Z,6.57
2022-10-24T01:47:38.783Z,7.17
2022-10-24T01:50:09.895Z,6.90
2022-10-24T01:52:39.464Z,7.07
2022-10-24T01:55:07.445Z,6.70
2022-10-24T01:57:35.633Z,7.20
2022-10-24T02:00:04.557Z,6.00
2022-10-24T02:02:39.545Z,6.70
2022-10-24T02:05:12.365Z,6.53
2022-10-24T02:07:41.777Z,6.73
2022-10-24T02:10:14.840Z,6.77
2022-10-24T02:12:47.666Z,6.13
2022-10-24T02:15:28.150Z,6.53
2022-10-24T02:17:56.182Z,6.83
2022-10-24T02:20:33.255Z,6.47
2022-10-24T02:23:30.768Z,7.20
2022-10-24T02:26:01.042Z,6.50
2022-10-24T02:28:33.320Z,6.37
2022-10-24T02:31:17.374Z,7.07
2022-10-24T02:33:46.466Z,6.60
2022-10-24T02:36:17.221Z,6.10
2022-10-24T02:38:47.241Z,6.23
2022-10-24T02:41:19.319Z,6.73
2022-10-24T02:43:46.784Z,7.07
2022-10-24T02:46:14.602Z,6.53
2022-10-24T02:48:50.377Z,6.00
2022-10-24T02:51:20.336Z,7.23
2022-10-24T02:53:47.272Z,6.47
2022-10-24T02:56:13.853Z,6.50
2022-10-24T02:58:40.485Z,6.40
2022-10-24T03:01:07.150Z,6.63
2022-10-24T03:03:33.821Z,6.37
2022-10-24T03:06:00.459Z,6.43
2022-10-24T03:08:27.089Z,6.53
2022-10-24T03:10:53.691Z,6.90
2022-10-24T03:13:20.259Z,6.37
2022-10-24T03:18:14.449Z,6.30
2022-10-24T03:20:40.997Z,6.10
2022-10-24T03:23:07.703Z,5.87
2022-10-24T03:25:34.315Z,5.90
2022-10-24T03:28:00.885Z,5.90
2022-10-24T03:30:27.585Z,5.43
2022-10-24T03:32:54.115Z,5.83
2022-10-24T03:35:21.334Z,6.20
2022-10-24T03:37:47.965Z,6.13
2022-10-24T03:40:14.575Z,5.97
2022-10-24T03:42:41.185Z,5.33
2022-10-24T03:45:08.213Z,5.53
2022-10-24T03:47:34.776Z,5.77
2022-10-24T03:50:01.424Z,5.70
2022-10-24T03:52:28.094Z,5.67
2022-10-24T03:54:54.618Z,5.60
2022-10-24T03:59:52.819Z,5.83
2022-10-24T04:02:19.428Z,5.40
2022-10-24T04:04:46.009Z,5.50
2022-10-24T04:07:12.571Z,5.03
2022-10-24T04:09:39.243Z,4.90
2022-10-24T04:12:05.971Z,5.30
2022-10-24T04:14:32.563Z,4.87
2022-10-24T04:16:59.180Z,5.30
2022-10-24T04:19:25.829Z,5.00
2022-10-24T04:21:52.660Z,5.00
2022-10-24T04:24:19.224Z,5.10
2022-10-24T04:26:45.961Z,4.80
2022-10-24T04:29:12.599Z,5.23
2022-10-24T04:31:39.138Z,5.03
2022-10-24T04:34:06.224Z,5.37
2022-10-24T04:36:33.817Z,5.00
2022-10-24T04:41:31.967Z,5.03
2022-10-24T04:43:58.729Z,4.60
2022-10-24T04:46:25.332Z,4.70
2022-10-24T04:48:53.416Z,4.97
2022-10-24T04:51:22.307Z,4.80
2022-10-24T04:53:50.043Z,4.87
2022-10-24T04:56:17.185Z,5.10
2022-10-24T04:58:44.059Z,4.80
2022-10-24T05:01:11.029Z,4.93
2022-10-24T05:03:37.639Z,4.80
2022-10-24T05:06:04.508Z,5.00
2022-10-24T05:08:31.123Z,4.90
2022-10-24T05:10:57.724Z,5.10
2022-10-24T05:13:24.313Z,4.93
2022-10-24T05:15:51.094Z,4.70
2022-10-24T05:18:17.681Z,5.13
2022-10-24T05:20:44.331Z,5.10
2022-10-24T05:23:10.994Z,5.03
2022-10-24T05:25:37.558Z,5.07
2022-10-24T05:28:04.287Z,4.87
2022-10-24T05:30:31.113Z,4.93
2022-10-24T05:32:57.695Z,5.20
2022-10-24T05:35:24.225Z,4.83
2022-10-24T05:37:50.756Z,5.30
2022-10-24T05:40:17.452Z,5.10
2022-10-24T05:42:44.386Z,4.50
2022-10-24T05:45:11.576Z,5.47
2022-10-24T05:47:38.235Z,4.93
2022-10-24T05:50:06.043Z,5.57
2022-10-24T05:52:32.840Z,5.53
2022-10-24T05:55:09.749Z,5.00
2022-10-24T05:57:39.257Z,5.80
2022-10-24T06:00:13.073Z,5.33
2022-10-24T06:02:40.642Z,5.30
2022-10-24T06:05:08.087Z,5.70
2022-10-24T06:07:35.218Z,5.30
2022-10-24T06:10:03.278Z,5.67
2022-10-24T06:12:29.893Z,6.20
2022-10-24T06:14:57.605Z,5.60
2022-10-24T06:17:24.319Z,5.53
2022-10-24T06:19:51.090Z,5.30
2022-10-24T06:22:18.640Z,5.33
2022-10-24T06:24:45.264Z,4.80
2022-10-24T06:27:13.288Z,5.90
2022-10-24T06:29:39.827Z,6.37
2022-10-24T06:32:06.421Z,6.10
2022-10-24T06:34:33.177Z,5.67
2022-10-24T06:36:59.718Z,6.00
2022-10-24T06:39:26.356Z,6.60
2022-10-24T06:41:52.938Z,7.63
2022-10-24T06:44:19.566Z,5.20
2022-10-24T06:46:46.228Z,5.57
2022-10-24T06:49:13.681Z,6.83
2022-10-24T06:51:40.846Z,6.07
2022-10-24T06:54:07.534Z,5.67
2022-10-24T06:56:34.163Z,6.03
2022-10-24T06:59:00.748Z,5.80
2022-10-24T07:01:27.766Z,5.90
2022-10-24T07:03:54.707Z,5.07
2022-10-24T07:06:27.038Z,5.73
2022-10-24T07:08:57.742Z,5.70
2022-10-24T07:11:24.922Z,5.93
2022-10-24T07:13:53.367Z,5.47
2022-10-24T07:16:23.347Z,6.07
2022-10-24T07:18:50.204Z,5.43
2022-10-24T07:21:24.986Z,6.10
2022-10-24T07:23:53.242Z,5.60
2022-10-24T07:26:20.927Z,5.20
2022-10-24T07:28:53.177Z,5.30
2022-10-24T07:31:22.647Z,4.93
2022-10-24T07:33:49.980Z,5.73
2022-10-24T07:36:22.542Z,4.67
2022-10-24T07:38:51.222Z,5.00
2022-10-24T07:41:18.432Z,4.87
2022-10-24T07:43:46.200Z,4.77
2022-10-24T07:46:14.905Z,4.80
2022-10-24T07:48:42.529Z,5.60
2022-10-24T07:51:11.327Z,4.60
2022-10-24T07:53:38.788Z,4.90
2022-10-24T07:56:09.655Z,4.67
2022-10-24T07:58:36.962Z,5.00
2022-10-24T08:01:31.304Z,5.07
2022-10-24T08:03:58.187Z,4.73
2022-10-24T08:06:29.654Z,4.30
2022-10-24T08:08:56.635Z,4.40
2022-10-24T08:11:25.978Z,4.40
2022-10-24T08:13:54.206Z,5.33
2022-10-24T08:16:22.867Z,4.50
2022-10-24T08:18:50.834Z,4.10
2022-10-24T08:21:19.566Z,4.57
2022-10-24T08:23:48.041Z,4.97
2022-10-24T08:26:17.563Z,4.37
2022-10-24T08:28:46.175Z,4.27
2022-10-24T08:31:15.271Z,4.40
2022-10-24T08:33:42.610Z,3.97
2022-10-24T08:36:22.782Z,4.20
2022-10-24T08:38:49.701Z,4.10
2022-10-24T08:41:33.749Z,4.00
2022-10-24T08:44:04.425Z,4.13
2022-10-24T08:46:44.337Z,3.90
2022-10-24T08:49:30.579Z,4.40
2022-10-24T08:52:19.269Z,3.90
2022-10-24T08:54:46.833Z,4.00
2022-10-24T08:57:29.234Z,3.75
2022-10-24T09:00:00.651Z,3.40
2022-10-24T09:02:31.567Z,4.20
2022-10-24T09:05:11.845Z,3.40
2022-10-24T09:07:38.955Z,3.65
2022-10-24T09:10:41.284Z,3.67
2022-10-24T09:13:16.135Z,3.92
2022-10-24T09:15:45.128Z,3.55
2022-10-24T09:18:22.351Z,3.58
2022-10-24T09:20:50.620Z,3.60
2022-10-24T09:23:18.836Z,3.15
2022-10-24T09:25:50.744Z,3.53
2022-10-24T09:28:18.240Z,3.10
2022-10-24T09:30:45.231Z,3.90
2022-10-24T09:33:32.817Z,3.28
2022-10-24T09:36:02.523Z,3.85
2022-10-24T09:38:33.570Z,3.05
2022-10-24T09:41:22.550Z,3.63
2022-10-24T09:43:54.911Z,3.60
2022-10-24T09:46:28.451Z,3.53
2022-10-24T09:49:03.159Z,3.28
2022-10-24T09:51:39.663Z,3.30
2022-10-24T09:54:18.453Z,3.10
2022-10-24T09:57:16.841Z,3.38
2022-10-24T09:59:46.440Z,3.85
2022-10-24T10:02:34.423Z,3.03
2022-10-24T10:05:04.129Z,3.42
2022-10-24T10:07:36.633Z,3.65
2022-10-24T10:10:18.187Z,3.10
2022-10-24T10:12:48.101Z,3.05
2022-10-24T10:15:26.831Z,2.97
2022-10-24T10:17:56.162Z,3.20
2022-10-24T10:20:41.040Z,3.13
2022-10-24T10:23:25.620Z,2.80
2022-10-24T10:26:13.915Z,2.97
2022-10-24T10:28:59.769Z,2.95
2022-10-24T10:31:48.419Z,3.42
2022-10-24T10:34:40.001Z,2.85
2022-10-24T10:37:31.361Z,2.85
2022-10-24T10:40:18.027Z,3.20
2022-10-24T10:42:56.554Z,3.47
2022-10-24T10:45:53.611Z,3.35
2022-10-24T10:48:36.695Z,2.97
2022-10-24T10:51:15.194Z,3.20
2022-10-24T10:53:58.506Z,3.53
2022-10-24T10:56:54.027Z,3.10
2022-10-24T10:59:58.503Z,2.90
2022-10-24T11:02:58.467Z,2.88
2022-10-24T11:05:53.588Z,3.10
2022-10-24T11:09:03.509Z,3.15
2022-10-24T11:11:35.969Z,3.13
2022-10-24T11:14:23.385Z,2.83
2022-10-24T11:16:53.008Z,3.20
2022-10-24T11:19:53.092Z,3.22
2022-10-24T11:22:25.547Z,2.90
2022-10-24T11:25:08.853Z,2.97
2022-10-24T11:27:41.771Z,3.10
2022-10-24T11:30:25.032Z,3.22
2022-10-24T11:33:04.461Z,3.33
2022-10-24T11:35:33.342Z,2.53
2022-10-24T11:38:16.347Z,2.65
2022-10-24T11:40:46.094Z,3.03
2022-10-24T11:43:22.178Z,3.45
2022-10-24T11:46:16.276Z,2.65
2022-10-24T11:51:37.541Z,2.95
2022-10-24T11:54:11.800Z,2.90
2022-10-24T11:56:44.043Z,2.85
2022-10-24T11:59:24.281Z,3.15
2022-10-24T12:02:28.017Z,2.38
2022-10-24T12:05:27.495Z,2.50
2022-10-24T12:08:16.359Z,2.95
2022-10-24T12:11:16.199Z,2.60
2022-10-24T12:13:59.636Z,2.85
2022-10-24T12:16:45.016Z,2.70
2022-10-24T12:19:16.368Z,2.75
2022-10-24T12:21:57.397Z,2.85
2022-10-24T12:24:30.414Z,2.40
2022-10-24T12:27:04.933Z,2.60
2022-10-24T12:29:35.261Z,2.83
2022-10-24T12:32:40.461Z,2.50
2022-10-24T12:35:33.957Z,2.63
2022-10-24T12:38:02.096Z,2.60
2022-10-24T12:41:09.821Z,3.00
2022-10-24T12:43:40.673Z,2.92
2022-10-24T12:46:22.667Z,2.80
2022-10-24T12:48:58.972Z,2.78
2022-10-24T12:51:36.334Z,2.30
2022-10-24T12:54:04.847Z,2.75
2022-10-24T12:56:33.299Z,3.30
2022-10-24T12:59:17.832Z,2.47
2022-10-24T13:01:45.616Z,2.60
2022-10-24T13:07:41.470Z,2.92
2022-10-24T13:10:27.569Z,2.65
2022-10-24T13:13:30.398Z,2.65
2022-10-24T13:16:26.197Z,2.53
2022-10-24T13:19:02.081Z,3.03
2022-10-24T13:24:14.709Z,2.35
2022-10-24T13:26:43.138Z,2.65
2022-10-24T13:29:35.841Z,2.80
2022-10-24T13:32:05.613Z,2.50
2022-10-24T13:34:52.379Z,2.72
2022-10-24T13:37:29.300Z,2.40
2022-10-24T13:40:07.914Z,2.70
2022-10-24T13:42:43.373Z,2.47
2022-10-24T13:45:39.675Z,2.67
2022-10-24T13:48:13.159Z,2.47
2022-10-24T13:50:50.761Z,3.17
2022-10-24T13:53:31.040Z,2.50
2022-10-24T13:56:02.538Z,2.63
2022-10-24T13:58:42.140Z,2.50
2022-10-24T14:01:27.511Z,2.30
2022-10-24T14:03:58.221Z,2.33
2022-10-24T14:06:33.449Z,2.67
2022-10-24T14:09:07.087Z,2.42
2022-10-24T14:11:39.246Z,2.80
2022-10-24T14:14:31.879Z,2.83
2022-10-24T14:17:22.745Z,2.97
2022-10-24T14:19:55.427Z,2.50
2022-10-24T14:22:50.635Z,3.22
2022-10-24T14:25:28.023Z,2.60
2022-10-24T14:27:57.270Z,2.72
2022-10-24T14:30:30.534Z,2.70
2022-10-24T14:33:19.602Z,2.55
2022-10-24T14:35:47.900Z,2.47
2022-10-24T14:38:17.001Z,3.05
2022-10-24T14:40:46.318Z,3.05
2022-10-24T14:43:21.839Z,2.72
2022-10-24T14:46:13.741Z,2.90
2022-10-24T14:48:48.438Z,2.60
2022-10-24T14:51:38.567Z,2.55
2022-10-24T14:54:18.619Z,2.53
2022-10-24T14:56:46.249Z,2.83
2022-10-24T14:59:26.135Z,2.70
2022-10-24T15:01:58.739Z,2.65
2022-10-24T15:04:46.542Z,2.50
2022-10-24T15:07:22.384Z,2.95
2022-10-24T15:10:19.303Z,3.10
2022-10-24T15:12:56.744Z,3.08
2022-10-24T15:15:23.682Z,2.92
2022-10-24T15:17:51.815Z,2.85
2022-10-24T15:20:22.334Z,3.10
2022-10-24T15:22:58.243Z,2.80
2022-10-24T15:25:40.553Z,2.70
2022-10-24T15:28:36.331Z,3.08
2022-10-24T15:31:03.171Z,2.95
2022-10-24T15:33:29.770Z,3.13
2022-10-24T15:35:57.702Z,3.10
2022-10-24T15:38:24.226Z,3.40
2022-10-24T15:40:50.819Z,2.75
2022-10-24T15:43:19.286Z,3.10
2022-10-24T15:45:46.483Z,3.33
2022-10-24T15:48:13.115Z,3.38
2022-10-24T15:50:45.972Z,3.03
2022-10-24T15:53:19.732Z,3.33
2022-10-24T15:55:46.675Z,3.42
2022-10-24T15:58:14.940Z,3.10
2022-10-24T16:00:42.322Z,3.05
2022-10-24T16:03:14.234Z,3.10
2022-10-24T16:05:45.786Z,3.55
2022-10-24T16:08:18.689Z,3.65
2022-10-24T16:10:48.309Z,3.10
2022-10-24T16:13:22.170Z,3.35
2022-10-24T16:15:49.809Z,3.50
2022-10-24T16:18:16.746Z,3.03
2022-10-24T16:20:43.566Z,3.22
2022-10-24T16:23:14.933Z,3.20
2022-10-24T16:25:41.504Z,3.63
2022-10-24T16:28:08.330Z,3.53
2022-10-24T16:30:37.412Z,3.38
2022-10-24T16:33:03.998Z,2.75
2022-10-24T16:35:34.008Z,3.10
2022-10-24T16:38:01.884Z,3.13
2022-10-24T16:40:29.241Z,3.30
2022-10-24T16:42:58.197Z,2.90
2022-10-24T16:45:25.344Z,3.03
2022-10-24T16:47:52.039Z,2.85
2022-10-24T16:50:24.662Z,2.75
2022-10-24T16:53:02.624Z,3.20
2022-10-24T16:55:30.350Z,3.10
2022-10-24T16:57:58.290Z,2.60
2022-10-24T17:00:26.104Z,2.55
2022-10-24T17:02:54.949Z,3.00
2022-10-24T17:05:24.211Z,3.13
2022-10-24T17:07:50.830Z,2.85
2022-10-24T17:10:20.697Z,2.60
2022-10-24T17:12:50.778Z,2.75
2022-10-24T17:15:21.981Z,2.60
2022-10-24T17:17:49.461Z,2.90
2022-10-24T17:20:17.241Z,2.40
2022-10-24T17:22:45.651Z,2.65
2022-10-24T17:25:24.055Z,2.45
2022-10-24T17:27:51.601Z,3.38
2022-10-24T17:30:24.382Z,3.15
2022-10-24T17:32:51.904Z,3.00
2022-10-24T17:35:21.421Z,2.50
2022-10-24T17:38:16.423Z,3.20
2022-10-24T17:40:45.801Z,2.40
2022-10-24T17:43:22.003Z,2.70
2022-10-24T17:45:56.701Z,2.78
2022-10-24T17:48:24.066Z,2.60
2022-10-24T17:51:00.798Z,2.83
2022-10-24T17:53:27.429Z,3.00
2022-10-24T17:55:53.986Z,2.35
2022-10-24T17:58:21.017Z,2.78
2022-10-24T18:00:47.694Z,2.88
2022-10-24T18:03:14.675Z,2.70
2022-10-24T18:05:41.641Z,2.70
2022-10-24T18:08:09.956Z,2.97
2022-10-24T18:10:40.304Z,2.53
2022-10-24T18:13:08.140Z,2.25
2022-10-24T18:15:35.976Z,2.65
2022-10-24T18:18:02.576Z,2.38
2022-10-24T18:20:29.297Z,2.58
2022-10-24T18:22:56.040Z,2.78
2022-10-24T18:25:23.361Z,2.53
2022-10-24T18:27:50.898Z,2.85
2022-10-24T18:30:19.269Z,2.95
2022-10-24T18:32:47.163Z,2.60
2022-10-24T18:35:15.281Z,2.80
2022-10-24T18:37:41.896Z,2.47
2022-10-24T18:40:10.168Z,3.13
2022-10-24T18:42:53.785Z,2.65
2022-10-24T18:45:23.493Z,2.55
2022-10-24T18:47:51.120Z,2.70
2022-10-24T18:50:21.063Z,2.87
2022-10-24T18:53:01.386Z,2.85
2022-10-24T18:55:30.261Z,2.93
2022-10-24T18:57:57.557Z,2.40
2022-10-24T19:00:27.112Z,2.58
2022-10-24T19:03:23.458Z,3.10
2022-10-24T19:06:03.022Z,2.43
2022-10-24T19:08:29.736Z,2.80
2022-10-24T19:10:57.359Z,2.90
2022-10-24T19:13:26.362Z,2.63
2022-10-24T19:16:01.289Z,2.50
2022-10-24T19:18:31.175Z,2.60
2022-10-24T19:20:58.864Z,3.07
2022-10-24T19:23:25.498Z,2.50
2022-10-24T19:25:52.485Z,2.80
2022-10-24T19:28:20.271Z,2.90
2022-10-24T19:30:47.627Z,2.77
2022-10-24T19:33:15.315Z,3.00
2022-10-24T19:35:46.908Z,2.85
2022-10-24T19:38:17.880Z,2.60
2022-10-24T19:40:49.669Z,2.63
2022-10-24T19:43:16.309Z,2.75
2022-10-24T19:45:50.080Z,2.97
2022-10-24T19:48:17.842Z,2.70
2022-10-24T19:50:44.560Z,2.72
2022-10-24T19:53:13.304Z,2.92
2022-10-24T19:55:40.640Z,2.97
2022-10-24T19:58:15.490Z,2.97
2022-10-24T20:00:42.222Z,2.83
2022-10-24T20:03:08.950Z,2.72
2022-10-24T20:05:36.149Z,2.88
2022-10-24T20:08:03.262Z,2.97
2022-10-24T20:10:29.881Z,2.93
2022-10-24T20:12:56.906Z,2.70
2022-10-24T20:15:26.288Z,2.60
2022-10-24T20:17:52.866Z,3.17
2022-10-24T20:20:20.020Z,2.63
2022-10-24T20:22:47.135Z,2.67
2022-10-24T20:25:13.925Z,2.83
2022-10-24T20:27:40.783Z,2.97
2022-10-24T20:30:08.164Z,3.22
2022-10-24T20:32:34.714Z,2.95
2022-10-24T20:35:01.363Z,2.88
2022-10-24T20:37:28.020Z,3.10
2022-10-24T20:39:54.657Z,2.70
2022-10-24T20:42:22.200Z,3.77
2022-10-24T20:44:48.962Z,3.13
2022-10-24T20:47:15.592Z,2.67
2022-10-24T20:49:42.290Z,2.80
2022-10-24T20:52:09.009Z,2.80
2022-10-24T20:54:35.703Z,2.95
2022-10-24T20:57:02.329Z,3.07
2022-10-24T20:59:28.899Z,3.03
2022-10-24T21:01:55.933Z,3.03
2022-10-24T21:04:22.628Z,2.90
2022-10-24T21:06:49.291Z,3.27
2022-10-24T21:09:15.959Z,2.70
2022-10-24T21:11:42.571Z,2.77
2022-10-24T21:14:12.473Z,2.80
2022-10-24T21:16:39.115Z,3.17
2022-10-24T21:19:05.777Z,2.70
2022-10-24T21:21:32.775Z,3.10
2022-10-24T21:24:04.340Z,2.80
2022-10-24T21:26:34.241Z,2.73
2022-10-24T21:29:14.584Z,2.50
2022-10-24T21:31:49.864Z,3.00
2022-10-24T21:34:17.348Z,3.43
2022-10-24T21:36:44.367Z,2.90
2022-10-24T21:39:15.636Z,2.70
2022-10-24T21:41:42.740Z,2.83
2022-10-24T21:44:09.812Z,2.90
2022-10-24T21:46:36.373Z,2.93
2022-10-24T21:49:03.814Z,3.03
2022-10-24T21:51:34.428Z,3.20
2022-10-24T21:54:06.255Z,2.73
2022-10-24T21:56:36.993Z,3.00
2022-10-24T21:59:06.009Z,3.00
2022-10-24T22:01:36.192Z,3.00
2022-10-24T22:04:04.040Z,3.20
2022-10-24T22:06:32.027Z,3.03
2022-10-24T22:08:58.749Z,2.85
2022-10-24T22:11:28.219Z,2.80
2022-10-24T22:13:55.438Z,3.10
2022-10-24T22:16:24.648Z,2.80
2022-10-24T22:18:51.759Z,2.87
2022-10-24T22:21:26.931Z,2.50
2022-10-24T22:23:56.929Z,2.97
2022-10-24T22:26:24.701Z,2.97
2022-10-24T22:28:51.327Z,2.90
2022-10-24T22:31:18.170Z,3.13
2022-10-24T22:33:44.867Z,2.93
2022-10-24T22:36:32.386Z,3.27
2022-10-24T22:38:59.360Z,3.73
2022-10-24T22:41:27.690Z,6.33
2022-10-24T22:43:54.607Z,3.90
2022-10-24T22:46:39.906Z,4.27
2022-10-24T22:49:38.849Z,3.00
2022-10-24T22:52:05.688Z,4.73
2022-10-24T22:54:35.553Z,3.17
2022-10-24T22:57:03.598Z,3.40
2022-10-24T22:59:31.324Z,3.20
2022-10-24T23:02:19.492Z,3.20
2022-10-24T23:05:24.915Z,3.97
2022-10-24T23:08:01.463Z,3.30
2022-10-24T23:10:31.619Z,3.43
2022-10-24T23:12:58.987Z,3.67
2022-10-24T23:15:26.126Z,3.47
2022-10-24T23:17:52.896Z,3.20
2022-10-24T23:20:26.473Z,2.93
2022-10-24T23:23:08.910Z,3.60
2022-10-24T23:25:49.374Z,3.47
2022-10-24T23:28:24.120Z,3.40
2022-10-24T23:30:51.055Z,2.97
2022-10-24T23:33:29.439Z,3.70
2022-10-24T23:36:00.312Z,3.80
2022-10-24T23:38:27.706Z,3.23
2022-10-24T23:40:54.918Z,3.10
2022-10-24T23:43:23.024Z,3.60
2022-10-24T23:46:25.300Z,3.23
2022-10-24T23:49:17.293Z,3.13
2022-10-24T23:52:11.761Z,3.30
2022-10-24T23:54:38.890Z,3.03
2022-10-24T23:57:15.563Z,3.83
2022-10-24T23:59:43.022Z,3.80
